createdAt,value
2019-03-18T00:00:41.658Z,1003.60
2019-03-18T00:02:35.049Z,1003.64
2019-03-18T00:03:35.055Z,1003.66
2019-03-18T00:05:28.446Z,1003.62
2019-03-18T00:06:28.445Z,1003.67
2019-03-18T00:08:21.849Z,1003.67
2019-03-18T00:09:21.857Z,1003.67
2019-03-18T00:11:15.248Z,1003.66
2019-03-18T00:12:15.252Z,1003.68
2019-03-18T00:14:08.664Z,1003.66
2019-03-18T00:15:08.653Z,1003.62
2019-03-18T00:17:02.043Z,1003.66
2019-03-18T00:18:02.046Z,1003.66
2019-03-18T00:19:55.440Z,1003.67
2019-03-18T00:20:55.447Z,1003.71
2019-03-18T00:22:48.836Z,1003.71
2019-03-18T00:23:48.847Z,1003.69
2019-03-18T00:25:42.240Z,1003.72
2019-03-18T00:26:42.245Z,1003.75
2019-03-18T00:28:35.634Z,1003.80
2019-03-18T00:29:35.646Z,1003.78
2019-03-18T00:31:29.044Z,1003.87
2019-03-18T00:32:29.043Z,1003.87
2019-03-18T00:34:22.440Z,1003.88
2019-03-18T00:35:22.437Z,1003.88
2019-03-18T00:37:15.832Z,1003.88
2019-03-18T00:38:15.844Z,1003.89
2019-03-18T00:40:08.739Z,1003.91
2019-03-18T00:41:08.738Z,1003.97
2019-03-18T00:43:02.130Z,1003.93
2019-03-18T00:44:02.148Z,1003.93
2019-03-18T00:45:55.540Z,1003.98
2019-03-18T00:46:55.538Z,1003.89
2019-03-18T00:48:48.925Z,1003.84
2019-03-18T00:49:48.936Z,1003.85
2019-03-18T00:51:42.332Z,1003.82
2019-03-18T00:52:42.332Z,1003.84
2019-03-18T00:54:35.728Z,1003.81
2019-03-18T00:55:35.728Z,1003.80
2019-03-18T00:57:29.119Z,1003.81
2019-03-18T00:58:29.124Z,1003.85
2019-03-18T01:00:22.522Z,1003.86
2019-03-18T01:01:22.524Z,1003.89
2019-03-18T01:03:15.915Z,1003.91
2019-03-18T01:04:15.921Z,1003.92
2019-03-18T01:06:09.315Z,1003.92
2019-03-18T01:07:09.317Z,1003.92
2019-03-18T01:09:02.706Z,1003.95
2019-03-18T01:10:02.720Z,1003.96
2019-03-18T01:11:56.117Z,1003.95
2019-03-18T01:12:56.116Z,1003.89
2019-03-18T01:14:49.519Z,1003.90
2019-03-18T01:15:49.525Z,1003.88
2019-03-18T01:17:42.908Z,1003.87
2019-03-18T01:18:42.918Z,1003.86
2019-03-18T01:20:36.315Z,1003.84
2019-03-18T01:21:36.318Z,1003.87
2019-03-18T01:23:29.723Z,1003.86
2019-03-18T01:24:29.723Z,1003.76
2019-03-18T01:26:23.121Z,1003.88
2019-03-18T01:27:25.381Z,1003.80
2019-03-18T01:29:16.514Z,1003.86
2019-03-18T01:30:16.524Z,1003.89
2019-03-18T01:32:09.916Z,1003.86
2019-03-18T01:33:09.917Z,1003.86
2019-03-18T01:35:03.313Z,1003.84
2019-03-18T01:36:03.315Z,1003.90
2019-03-18T01:37:56.711Z,1003.89
2019-03-18T01:38:56.715Z,1003.82
2019-03-18T01:40:50.109Z,1003.87
2019-03-18T01:41:50.112Z,1003.87
2019-03-18T01:43:43.004Z,1003.87
2019-03-18T01:44:43.019Z,1003.86
2019-03-18T01:46:36.421Z,1003.83
2019-03-18T01:47:36.417Z,1003.79
2019-03-18T01:49:29.806Z,1003.76
2019-03-18T01:50:29.815Z,1003.75
2019-03-18T01:52:23.213Z,1003.79
2019-03-18T01:53:23.217Z,1003.83
2019-03-18T01:55:16.614Z,1003.89
2019-03-18T01:56:16.615Z,1003.76
2019-03-18T01:58:10.012Z,1003.88
2019-03-18T01:59:10.023Z,1003.89
2019-03-18T02:01:03.421Z,1003.83
2019-03-18T02:02:03.417Z,1003.83
2019-03-18T02:03:56.808Z,1003.82
2019-03-18T02:04:56.818Z,1003.79
2019-03-18T02:06:50.213Z,1003.80
2019-03-18T02:07:50.216Z,1003.82
2019-03-18T02:09:43.605Z,1003.82
2019-03-18T02:10:43.617Z,1003.85
2019-03-18T02:12:37.016Z,1003.86
2019-03-18T02:13:37.014Z,1003.87
2019-03-18T02:15:30.414Z,1003.82
2019-03-18T02:16:30.412Z,1003.84
2019-03-18T02:18:23.815Z,1003.86
2019-03-18T02:19:23.826Z,1003.93
2019-03-18T02:21:17.216Z,1003.92
2019-03-18T02:22:17.220Z,1003.89
2019-03-18T02:24:10.623Z,1003.95
2019-03-18T02:25:10.633Z,1003.87
2019-03-18T02:27:03.533Z,1003.94
2019-03-18T02:28:03.534Z,1004.00
2019-03-18T02:29:56.927Z,1004.07
2019-03-18T02:30:56.943Z,1004.10
2019-03-18T02:32:50.347Z,1004.11
2019-03-18T02:33:50.460Z,1004.15
2019-03-18T02:35:43.727Z,1004.18
2019-03-18T02:36:43.729Z,1004.21
2019-03-18T02:38:37.118Z,1004.16
2019-03-18T02:39:37.127Z,1004.09
2019-03-18T02:41:30.580Z,1004.21
2019-03-18T02:42:30.528Z,1004.21
2019-03-18T02:44:23.422Z,1004.27
2019-03-18T02:45:24.927Z,1004.27
2019-03-18T02:47:16.830Z,1004.34
2019-03-18T02:48:16.826Z,1004.26
2019-03-18T02:50:09.721Z,1004.21
2019-03-18T02:51:09.736Z,1004.29
2019-03-18T02:53:03.136Z,1004.30
2019-03-18T02:54:03.138Z,1004.29
2019-03-18T02:55:56.525Z,1004.26
2019-03-18T02:56:56.525Z,1004.24
2019-03-18T02:58:49.420Z,1004.31
2019-03-18T02:59:49.436Z,1004.26
2019-03-18T03:01:42.821Z,1004.33
2019-03-18T03:02:42.830Z,1004.37
2019-03-18T03:04:36.213Z,1004.45
2019-03-18T03:05:36.224Z,1004.41
2019-03-18T03:07:29.643Z,1004.38
2019-03-18T03:08:29.665Z,1004.41
2019-03-18T03:10:22.562Z,1004.40
2019-03-18T03:11:22.559Z,1004.39
2019-03-18T03:13:15.474Z,1004.36
2019-03-18T03:14:15.452Z,1004.42
2019-03-18T03:16:20.405Z,1004.48
2019-03-18T03:17:08.847Z,1004.52
2019-03-18T03:19:01.742Z,1004.48
2019-03-18T03:20:01.766Z,1004.51
2019-03-18T03:21:55.146Z,1004.50
2019-03-18T03:22:55.154Z,1004.54
2019-03-18T03:24:48.672Z,1004.56
2019-03-18T03:25:48.546Z,1004.53
2019-03-18T03:27:41.940Z,1004.55
2019-03-18T03:28:41.946Z,1004.52
2019-03-18T03:30:34.842Z,1004.52
2019-03-18T03:31:34.844Z,1004.57
2019-03-18T03:33:27.750Z,1004.53
2019-03-18T03:34:27.752Z,1004.53
2019-03-18T03:36:21.144Z,1004.55
2019-03-18T03:37:21.143Z,1004.51
2019-03-18T03:39:14.041Z,1004.54
2019-03-18T03:40:14.048Z,1004.51
2019-03-18T03:42:06.951Z,1004.61
2019-03-18T03:43:07.004Z,1004.59
2019-03-18T03:44:59.846Z,1004.66
2019-03-18T03:45:59.853Z,1004.64
2019-03-18T03:47:52.761Z,1004.66
2019-03-18T03:48:52.756Z,1004.65
2019-03-18T03:50:45.656Z,1004.64
2019-03-18T03:51:45.656Z,1004.71
2019-03-18T03:53:38.552Z,1004.77
2019-03-18T03:54:38.561Z,1004.79
2019-03-18T03:56:31.956Z,1004.86
2019-03-18T03:57:31.956Z,1004.90
2019-03-18T03:59:24.855Z,1004.93
2019-03-18T04:00:24.868Z,1004.88
2019-03-18T04:02:17.762Z,1004.89
2019-03-18T04:03:17.764Z,1004.93
2019-03-18T04:05:10.659Z,1004.94
2019-03-18T04:06:10.669Z,1004.93
2019-03-18T04:08:03.689Z,1004.95
2019-03-18T04:09:03.568Z,1004.95
2019-03-18T04:10:56.470Z,1004.97
2019-03-18T04:11:56.471Z,1005.03
2019-03-18T04:13:49.863Z,1005.09
2019-03-18T04:14:49.873Z,1005.11
2019-03-18T04:16:49.723Z,1005.10
2019-03-18T04:17:42.779Z,1005.10
2019-03-18T04:19:36.169Z,1005.00
2019-03-18T04:20:36.177Z,1004.98
2019-03-18T04:22:29.587Z,1004.94
2019-03-18T04:23:29.586Z,1004.96
2019-03-18T04:25:22.482Z,1005.04
2019-03-18T04:26:22.490Z,1005.05
2019-03-18T04:28:15.414Z,1005.08
2019-03-18T04:29:15.393Z,1005.07
2019-03-18T04:31:08.792Z,1005.07
2019-03-18T04:32:08.795Z,1005.08
2019-03-18T04:34:02.185Z,1005.12
2019-03-18T04:35:02.194Z,1005.11
2019-03-18T04:36:55.593Z,1005.14
2019-03-18T04:37:55.597Z,1005.15
2019-03-18T04:39:48.649Z,1005.21
2019-03-18T04:40:48.501Z,1005.24
2019-03-18T04:42:41.919Z,1005.24
2019-03-18T04:43:41.902Z,1005.22
2019-03-18T04:45:35.293Z,1005.27
2019-03-18T04:46:35.304Z,1005.26
2019-03-18T04:48:28.205Z,1005.30
2019-03-18T04:49:28.203Z,1005.30
2019-03-18T04:51:21.606Z,1005.34
2019-03-18T04:52:21.606Z,1005.30
2019-03-18T04:54:14.508Z,1005.30
2019-03-18T04:55:14.511Z,1005.37
2019-03-18T04:57:07.905Z,1005.41
2019-03-18T04:58:07.909Z,1005.41
2019-03-18T05:00:01.315Z,1005.53
2019-03-18T05:01:01.305Z,1005.56
2019-03-18T05:02:54.708Z,1005.56
2019-03-18T05:03:54.709Z,1005.53
2019-03-18T05:05:48.098Z,1005.56
2019-03-18T05:06:48.108Z,1005.59
2019-03-18T05:08:41.506Z,1005.56
2019-03-18T05:09:41.571Z,1005.57
2019-03-18T05:11:34.898Z,1005.65
2019-03-18T05:12:34.908Z,1005.66
2019-03-18T05:14:27.800Z,1005.62
2019-03-18T05:15:27.806Z,1005.64
2019-03-18T05:17:26.530Z,1005.62
2019-03-18T05:18:21.209Z,1005.60
2019-03-18T05:20:14.597Z,1005.60
2019-03-18T05:21:14.606Z,1005.64
2019-03-18T05:23:08.014Z,1005.65
2019-03-18T05:24:08.012Z,1005.61
2019-03-18T05:26:01.404Z,1005.68
2019-03-18T05:27:01.419Z,1005.68
2019-03-18T05:28:54.809Z,1005.66
2019-03-18T05:29:54.810Z,1005.66
2019-03-18T05:31:48.312Z,1005.77
2019-03-18T05:32:48.210Z,1005.83
2019-03-18T05:34:41.609Z,1005.86
2019-03-18T05:35:41.629Z,1005.87
2019-03-18T05:37:35.016Z,1005.95
2019-03-18T05:38:35.018Z,1005.98
2019-03-18T05:40:28.405Z,1005.97
2019-03-18T05:41:28.413Z,1005.96
2019-03-18T05:43:21.317Z,1006.00
2019-03-18T05:44:21.318Z,1006.01
2019-03-18T05:46:14.704Z,1006.04
2019-03-18T05:47:14.714Z,1006.03
2019-03-18T05:49:07.613Z,1006.07
2019-03-18T05:50:07.619Z,1006.06
2019-03-18T05:52:00.514Z,1006.15
2019-03-18T05:53:00.514Z,1006.18
2019-03-18T05:54:53.410Z,1006.20
2019-03-18T05:55:53.421Z,1006.24
2019-03-18T05:57:46.350Z,1006.24
2019-03-18T05:58:46.321Z,1006.20
2019-03-18T06:00:39.708Z,1006.23
2019-03-18T06:01:39.718Z,1006.28
2019-03-18T06:03:33.152Z,1006.28
2019-03-18T06:04:33.118Z,1006.26
2019-03-18T06:06:26.511Z,1006.37
2019-03-18T06:07:26.514Z,1006.43
2019-03-18T06:09:19.408Z,1006.43
2019-03-18T06:10:19.424Z,1006.42
2019-03-18T06:12:12.864Z,1006.43
2019-03-18T06:13:12.816Z,1006.40
2019-03-18T06:15:06.217Z,1006.40
2019-03-18T06:16:06.212Z,1006.42
2019-03-18T06:17:59.609Z,1006.45
2019-03-18T06:19:00.379Z,1006.48
2019-03-18T06:20:52.504Z,1006.56
2019-03-18T06:21:52.512Z,1006.57
2019-03-18T06:23:45.415Z,1006.65
2019-03-18T06:24:45.417Z,1006.72
2019-03-18T06:26:38.328Z,1006.75
2019-03-18T06:27:38.320Z,1006.78
2019-03-18T06:29:31.717Z,1006.78
2019-03-18T06:30:31.721Z,1006.79
2019-03-18T06:32:25.121Z,1006.88
2019-03-18T06:33:25.124Z,1006.85
2019-03-18T06:35:20.516Z,1006.89
2019-03-18T06:36:18.527Z,1006.89
2019-03-18T06:38:11.960Z,1006.93
2019-03-18T06:39:11.939Z,1006.94
2019-03-18T06:41:05.331Z,1006.95
2019-03-18T06:42:05.337Z,1006.95
2019-03-18T06:43:58.735Z,1006.96
2019-03-18T06:44:58.738Z,1007.02
2019-03-18T06:46:51.642Z,1007.01
2019-03-18T06:48:03.823Z,1007.02
2019-03-18T06:49:44.540Z,1007.09
2019-03-18T06:50:44.552Z,1007.10
2019-03-18T06:52:37.452Z,1007.07
2019-03-18T06:53:40.077Z,1007.14
2019-03-18T06:55:30.350Z,1007.18
2019-03-18T06:56:30.359Z,1007.20
2019-03-18T06:58:23.266Z,1007.21
2019-03-18T06:59:23.263Z,1007.26
2019-03-18T07:01:16.160Z,1007.19
2019-03-18T07:02:16.171Z,1007.23
2019-03-18T07:04:09.071Z,1007.28
2019-03-18T07:05:09.075Z,1007.33
2019-03-18T07:07:01.979Z,1007.41
2019-03-18T07:08:01.982Z,1007.44
2019-03-18T07:09:54.878Z,1007.46
2019-03-18T07:10:54.889Z,1007.51
2019-03-18T07:12:47.792Z,1007.55
2019-03-18T07:13:47.792Z,1007.53
2019-03-18T07:15:40.704Z,1007.58
2019-03-18T07:16:40.696Z,1007.63
2019-03-18T07:18:33.603Z,1007.65
2019-03-18T07:19:33.601Z,1007.66
2019-03-18T07:21:26.509Z,1007.70
2019-03-18T07:22:26.510Z,1007.69
2019-03-18T07:24:19.413Z,1007.65
2019-03-18T07:25:19.414Z,1007.65
2019-03-18T07:27:12.327Z,1007.71
2019-03-18T07:28:12.332Z,1007.69
2019-03-18T07:30:05.234Z,1007.78
2019-03-18T07:31:05.238Z,1007.75
2019-03-18T07:32:58.147Z,1007.77
2019-03-18T07:33:59.885Z,1007.76
2019-03-18T07:35:51.045Z,1007.82
2019-03-18T07:36:51.054Z,1007.88
2019-03-18T07:38:43.974Z,1007.88
2019-03-18T07:39:43.977Z,1007.88
2019-03-18T07:41:37.368Z,1007.90
2019-03-18T07:42:37.378Z,1007.91
2019-03-18T07:44:30.285Z,1007.99
2019-03-18T07:45:30.290Z,1007.96
2019-03-18T07:47:23.193Z,1008.06
2019-03-18T07:48:30.730Z,1008.07
2019-03-18T07:50:16.193Z,1008.07
2019-03-18T07:51:16.109Z,1008.11
2019-03-18T07:53:09.013Z,1008.13
2019-03-18T07:54:09.016Z,1008.14
2019-03-18T07:56:01.928Z,1008.22
2019-03-18T07:57:01.927Z,1008.18
2019-03-18T07:58:54.835Z,1008.23
2019-03-18T07:59:54.839Z,1008.27
2019-03-18T08:01:47.737Z,1008.24
2019-03-18T08:02:47.759Z,1008.31
2019-03-18T08:04:41.152Z,1008.30
2019-03-18T08:05:41.157Z,1008.28
2019-03-18T08:07:34.064Z,1008.28
2019-03-18T08:08:34.089Z,1008.32
2019-03-18T08:10:26.965Z,1008.35
2019-03-18T08:11:26.976Z,1008.34
2019-03-18T08:13:20.377Z,1008.34
2019-03-18T08:14:20.382Z,1008.41
2019-03-18T08:16:13.281Z,1008.39
2019-03-18T08:17:13.294Z,1008.31
2019-03-18T08:19:06.204Z,1008.32
2019-03-18T08:20:06.207Z,1008.31
2019-03-18T08:21:59.105Z,1008.34
2019-03-18T08:22:59.118Z,1008.41
2019-03-18T08:24:52.024Z,1008.43
2019-03-18T08:25:52.027Z,1008.45
2019-03-18T08:27:44.938Z,1008.48
2019-03-18T08:28:44.939Z,1008.50
2019-03-18T08:30:37.837Z,1008.51
2019-03-18T08:31:37.847Z,1008.52
2019-03-18T08:33:30.756Z,1008.55
2019-03-18T08:34:30.759Z,1008.56
2019-03-18T08:36:24.152Z,1008.55
2019-03-18T08:37:24.163Z,1008.64
2019-03-18T08:39:17.085Z,1008.64
2019-03-18T08:40:17.084Z,1008.66
2019-03-18T08:42:10.475Z,1008.71
2019-03-18T08:43:10.488Z,1008.73
2019-03-18T08:45:03.395Z,1008.73
2019-03-18T08:46:03.400Z,1008.70
2019-03-18T08:47:56.308Z,1008.72
2019-03-18T08:48:56.353Z,1008.76
2019-03-18T08:50:49.213Z,1008.83
2019-03-18T08:51:49.224Z,1008.86
2019-03-18T08:53:42.135Z,1008.85
2019-03-18T08:54:42.137Z,1008.86
2019-03-18T08:56:35.035Z,1008.86
2019-03-18T08:57:35.050Z,1008.85
2019-03-18T08:59:27.957Z,1008.86
2019-03-18T09:00:27.964Z,1008.86
2019-03-18T09:02:20.880Z,1008.88
2019-03-18T09:03:20.881Z,1008.92
2019-03-18T09:05:13.782Z,1008.89
2019-03-18T09:06:13.787Z,1008.89
2019-03-18T09:08:06.700Z,1008.96
2019-03-18T09:09:06.700Z,1008.97
2019-03-18T09:10:59.604Z,1009.09
2019-03-18T09:11:59.617Z,1009.07
2019-03-18T09:13:52.523Z,1009.08
2019-03-18T09:14:52.527Z,1009.08
2019-03-18T09:16:45.922Z,1009.19
2019-03-18T09:17:45.937Z,1009.09
2019-03-18T09:19:38.842Z,1009.15
2019-03-18T09:20:38.847Z,1009.16
2019-03-18T09:22:31.746Z,1009.20
2019-03-18T09:23:31.759Z,1009.16
2019-03-18T09:25:24.664Z,1009.17
2019-03-18T09:26:24.669Z,1009.17
2019-03-18T09:28:17.581Z,1009.26
2019-03-18T09:29:17.584Z,1009.24
2019-03-18T09:31:10.512Z,1009.28
2019-03-18T09:32:10.496Z,1009.29
2019-03-18T09:34:03.403Z,1009.26
2019-03-18T09:35:03.407Z,1009.29
2019-03-18T09:36:56.801Z,1009.21
2019-03-18T09:37:56.815Z,1009.31
2019-03-18T09:39:49.723Z,1009.31
2019-03-18T09:40:49.728Z,1009.37
2019-03-18T09:42:42.631Z,1009.29
2019-03-18T09:43:42.642Z,1009.33
2019-03-18T09:45:35.552Z,1009.32
2019-03-18T09:46:35.556Z,1009.28
2019-03-18T09:48:28.465Z,1009.33
2019-03-18T09:49:28.469Z,1009.17
2019-03-18T09:51:21.369Z,1009.36
2019-03-18T09:52:21.380Z,1009.31
2019-03-18T09:54:14.286Z,1009.40
2019-03-18T09:55:14.290Z,1009.39
2019-03-18T09:57:07.198Z,1009.41
2019-03-18T09:58:07.204Z,1009.40
2019-03-18T10:00:00.121Z,1009.41
2019-03-18T10:01:00.117Z,1009.49
2019-03-18T10:02:53.016Z,1009.48
2019-03-18T10:03:53.074Z,1009.48
2019-03-18T10:05:45.940Z,1009.49
2019-03-18T10:06:48.329Z,1009.51
2019-03-18T10:08:38.845Z,1009.48
2019-03-18T10:09:38.851Z,1009.45
2019-03-18T10:11:31.752Z,1009.51
2019-03-18T10:12:31.762Z,1009.58
2019-03-18T10:14:25.164Z,1009.51
2019-03-18T10:15:25.170Z,1009.55
2019-03-18T10:17:18.070Z,1009.52
2019-03-18T10:18:18.085Z,1009.44
2019-03-18T10:20:10.989Z,1009.54
2019-03-18T10:21:10.994Z,1009.54
2019-03-18T10:23:03.901Z,1009.61
2019-03-18T10:24:03.906Z,1009.68
2019-03-18T10:25:57.304Z,1009.65
2019-03-18T10:26:57.312Z,1009.65
2019-03-18T10:28:50.217Z,1009.69
2019-03-18T10:29:50.221Z,1009.70
2019-03-18T10:31:43.614Z,1009.68
2019-03-18T10:32:43.627Z,1009.71
2019-03-18T10:34:36.531Z,1009.73
2019-03-18T10:35:36.535Z,1009.75
2019-03-18T10:37:29.439Z,1009.76
2019-03-18T10:38:29.448Z,1009.66
2019-03-18T10:40:22.356Z,1009.76
2019-03-18T10:41:22.360Z,1009.77
2019-03-18T10:43:15.267Z,1009.83
2019-03-18T10:44:15.271Z,1009.82
2019-03-18T10:46:08.174Z,1009.78
2019-03-18T10:47:08.223Z,1009.78
2019-03-18T10:49:01.093Z,1009.72
2019-03-18T10:50:01.096Z,1009.77
2019-03-18T10:51:53.999Z,1009.75
2019-03-18T10:52:54.008Z,1009.68
2019-03-18T10:54:48.437Z,1009.67
2019-03-18T10:55:48.414Z,1009.71
2019-03-18T10:57:41.319Z,1009.68
2019-03-18T10:58:41.328Z,1009.71
2019-03-18T11:00:34.232Z,1009.75
2019-03-18T11:01:34.237Z,1009.65
2019-03-18T11:03:27.143Z,1009.78
2019-03-18T11:04:27.148Z,1009.79
2019-03-18T11:06:20.045Z,1009.82
2019-03-18T11:07:20.058Z,1009.93
2019-03-18T11:09:12.966Z,1009.94
2019-03-18T11:10:12.969Z,1009.91
2019-03-18T11:12:05.874Z,1009.83
2019-03-18T11:13:13.004Z,1009.89
2019-03-18T11:14:59.288Z,1010.00
2019-03-18T11:15:59.297Z,1010.04
2019-03-18T11:18:00.323Z,1010.11
2019-03-18T11:18:52.702Z,1010.10
2019-03-18T11:20:53.719Z,1010.17
2019-03-18T11:21:53.726Z,1010.15
2019-03-18T11:23:39.516Z,1010.17
2019-03-18T11:24:39.523Z,1010.08
2019-03-18T11:26:32.919Z,1010.09
2019-03-18T11:27:32.952Z,1010.25
2019-03-18T11:29:26.334Z,1010.37
2019-03-18T11:30:26.341Z,1010.13
2019-03-18T11:32:19.737Z,1010.77
2019-03-18T11:33:19.753Z,1010.83
2019-03-18T11:35:12.656Z,1010.87
2019-03-18T11:36:12.659Z,1010.97
2019-03-18T11:38:06.068Z,1010.91
2019-03-18T11:39:06.074Z,1010.94
2019-03-18T11:40:59.474Z,1010.96
2019-03-18T11:41:59.479Z,1010.98
2019-03-18T11:43:52.880Z,1010.89
2019-03-18T11:44:52.887Z,1010.89
2019-03-18T11:46:45.785Z,1010.84
2019-03-18T11:47:45.799Z,1010.86
2019-03-18T11:49:39.884Z,1010.83
2019-03-18T11:50:41.354Z,1010.86
2019-03-18T11:52:32.838Z,1010.96
2019-03-18T11:53:31.619Z,1010.95
2019-03-18T11:55:25.018Z,1011.02
2019-03-18T11:56:25.023Z,1011.14
2019-03-18T11:58:18.426Z,1011.25
2019-03-18T11:59:20.806Z,1011.23
2019-03-18T12:01:11.839Z,1011.23
2019-03-18T12:02:11.858Z,1011.33
2019-03-18T12:04:04.750Z,1011.25
2019-03-18T12:05:04.758Z,1011.26
2019-03-18T12:06:58.152Z,1011.24
2019-03-18T12:07:58.170Z,1011.14
2019-03-18T12:09:51.068Z,1011.21
2019-03-18T12:10:51.072Z,1011.09
2019-03-18T12:12:44.467Z,1011.17
2019-03-18T12:13:44.477Z,1011.16
2019-03-18T12:15:37.879Z,1011.16
2019-03-18T12:16:37.880Z,1011.18
2019-03-18T12:18:31.273Z,1011.17
2019-03-18T12:19:31.285Z,1011.15
2019-03-18T12:21:24.192Z,1011.17
2019-03-18T12:22:24.196Z,1011.16
2019-03-18T12:24:17.595Z,1011.10
2019-03-18T12:25:17.598Z,1011.12
2019-03-18T12:27:10.992Z,1011.07
2019-03-18T12:28:11.004Z,1011.06
2019-03-18T12:30:04.408Z,1011.17
2019-03-18T12:31:04.412Z,1011.14
2019-03-18T12:32:57.806Z,1011.07
2019-03-18T12:33:57.815Z,1011.09
2019-03-18T12:35:51.215Z,1011.10
2019-03-18T12:36:51.221Z,1011.05
2019-03-18T12:38:44.123Z,1010.97
2019-03-18T12:39:44.128Z,1011.08
2019-03-18T12:41:37.035Z,1011.01
2019-03-18T12:42:37.040Z,1011.04
2019-03-18T12:44:30.083Z,1011.01
2019-03-18T12:45:30.087Z,1011.08
2019-03-18T12:47:22.990Z,1010.94
2019-03-18T12:48:22.997Z,1011.02
2019-03-18T12:50:16.397Z,1010.97
2019-03-18T12:51:16.400Z,1010.97
2019-03-18T12:53:09.795Z,1010.97
2019-03-18T12:54:09.806Z,1011.05
2019-03-18T12:56:02.713Z,1010.96
2019-03-18T12:57:02.719Z,1010.93
2019-03-18T12:58:55.617Z,1010.95
2019-03-18T12:59:55.628Z,1010.94
2019-03-18T13:01:48.534Z,1010.93
2019-03-18T13:02:48.538Z,1010.88
2019-03-18T13:04:41.444Z,1010.95
2019-03-18T13:05:41.448Z,1010.93
2019-03-18T13:07:34.349Z,1010.91
2019-03-18T13:08:34.360Z,1010.94
2019-03-18T13:10:27.267Z,1010.99
2019-03-18T13:11:27.279Z,1011.05
2019-03-18T13:13:20.174Z,1011.06
2019-03-18T13:14:20.184Z,1011.33
2019-03-18T13:16:13.092Z,1011.26
2019-03-18T13:17:13.097Z,1011.28
2019-03-18T13:19:06.023Z,1011.31
2019-03-18T13:20:06.010Z,1011.37
2019-03-18T13:21:58.916Z,1011.36
2019-03-18T13:22:58.931Z,1011.39
2019-03-18T13:24:51.827Z,1011.43
2019-03-18T13:25:51.832Z,1011.41
2019-03-18T13:27:44.738Z,1011.28
2019-03-18T13:28:44.740Z,1011.57
2019-03-18T13:30:37.648Z,1011.33
2019-03-18T13:31:37.652Z,1011.39
2019-03-18T13:33:30.550Z,1011.35
2019-03-18T13:34:30.560Z,1011.27
2019-03-18T13:36:25.413Z,1011.42
2019-03-18T13:37:23.470Z,1011.49
2019-03-18T13:39:16.375Z,1011.44
2019-03-18T13:40:16.409Z,1011.41
2019-03-18T13:42:09.291Z,1011.39
2019-03-18T13:43:09.294Z,1011.42
2019-03-18T13:45:02.205Z,1011.36
2019-03-18T13:46:02.210Z,1011.41
2019-03-18T13:47:55.106Z,1011.59
2019-03-18T13:48:55.117Z,1011.29
2019-03-18T13:50:48.022Z,1011.38
2019-03-18T13:51:48.027Z,1011.47
2019-03-18T13:53:40.924Z,1011.50
2019-03-18T13:54:40.936Z,1011.49
2019-03-18T13:56:34.341Z,1011.30
2019-03-18T13:57:34.339Z,1011.38
2019-03-18T13:59:27.243Z,1011.38
2019-03-18T14:00:27.246Z,1011.39
2019-03-18T14:02:20.146Z,1011.39
2019-03-18T14:03:20.162Z,1011.45
2019-03-18T14:05:13.064Z,1011.47
2019-03-18T14:06:13.067Z,1011.47
2019-03-18T14:08:05.974Z,1011.49
2019-03-18T14:09:05.981Z,1011.46
2019-03-18T14:10:58.885Z,1011.46
2019-03-18T14:11:58.890Z,1011.46
2019-03-18T14:13:51.791Z,1011.42
2019-03-18T14:14:51.800Z,1011.45
2019-03-18T14:16:44.718Z,1011.44
2019-03-18T14:17:44.715Z,1011.40
2019-03-18T14:19:37.623Z,1011.41
2019-03-18T14:20:37.626Z,1011.40
2019-03-18T14:22:30.528Z,1011.40
2019-03-18T14:23:30.540Z,1011.41
2019-03-18T14:25:23.445Z,1011.47
2019-03-18T14:26:23.450Z,1011.46
2019-03-18T14:28:16.351Z,1011.49
2019-03-18T14:29:16.361Z,1011.46
2019-03-18T14:31:09.271Z,1011.48
2019-03-18T14:32:09.277Z,1011.47
2019-03-18T14:34:02.177Z,1011.51
2019-03-18T14:35:02.186Z,1011.49
2019-03-18T14:36:55.095Z,1011.54
2019-03-18T14:37:55.106Z,1011.56
2019-03-18T14:39:48.010Z,1011.52
2019-03-18T14:40:48.011Z,1011.55
2019-03-18T14:42:40.910Z,1011.46
2019-03-18T14:43:40.922Z,1011.58
2019-03-18T14:45:33.828Z,1011.54
2019-03-18T14:46:33.833Z,1011.51
2019-03-18T14:48:26.736Z,1011.54
2019-03-18T14:49:26.747Z,1011.53
2019-03-18T14:51:19.656Z,1011.58
2019-03-18T14:52:19.660Z,1011.53
2019-03-18T14:54:12.565Z,1011.58
2019-03-18T14:55:12.576Z,1011.74
2019-03-18T14:57:05.490Z,1011.84
2019-03-18T14:58:05.487Z,1011.85
2019-03-18T14:59:58.398Z,1011.95
2019-03-18T15:00:58.399Z,1011.97
2019-03-18T15:02:51.302Z,1012.03
2019-03-18T15:03:51.313Z,1011.98
2019-03-18T15:05:44.223Z,1012.01
2019-03-18T15:06:44.228Z,1011.95
2019-03-18T15:08:37.136Z,1011.99
2019-03-18T15:09:37.142Z,1011.99
2019-03-18T15:11:30.049Z,1012.01
2019-03-18T15:12:30.141Z,1012.04
2019-03-18T15:14:22.950Z,1012.07
2019-03-18T15:15:22.982Z,1012.08
2019-03-18T15:17:15.893Z,1012.06
2019-03-18T15:18:15.949Z,1012.02
2019-03-18T15:20:08.807Z,1012.01
2019-03-18T15:21:08.965Z,1012.04
2019-03-18T15:23:01.715Z,1012.04
2019-03-18T15:24:01.725Z,1012.08
2019-03-18T15:25:54.633Z,1012.09
2019-03-18T15:26:54.707Z,1012.06
2019-03-18T15:28:47.562Z,1012.01
2019-03-18T15:29:47.553Z,1012.13
2019-03-18T15:31:40.458Z,1012.05
2019-03-18T15:32:40.473Z,1012.11
2019-03-18T15:34:33.369Z,1012.10
2019-03-18T15:35:33.380Z,1012.12
2019-03-18T15:37:26.312Z,1012.16
2019-03-18T15:38:26.293Z,1012.23
2019-03-18T15:40:19.205Z,1012.21
2019-03-18T15:41:19.205Z,1012.25
2019-03-18T15:43:12.136Z,1012.22
2019-03-18T15:44:12.121Z,1012.27
2019-03-18T15:46:05.030Z,1012.34
2019-03-18T15:47:05.034Z,1012.33
2019-03-18T15:48:58.111Z,1012.40
2019-03-18T15:49:59.048Z,1012.33
2019-03-18T15:51:51.159Z,1012.38
2019-03-18T15:52:51.006Z,1012.39
2019-03-18T15:54:53.349Z,1012.44
2019-03-18T15:55:43.913Z,1012.51
2019-03-18T15:57:36.821Z,1012.50
2019-03-18T15:58:36.831Z,1012.51
2019-03-18T16:00:29.741Z,1012.59
2019-03-18T16:01:29.739Z,1012.60
2019-03-18T16:03:22.644Z,1012.54
2019-03-18T16:04:22.657Z,1012.61
2019-03-18T16:06:15.561Z,1012.59
2019-03-18T16:07:15.563Z,1012.65
2019-03-18T16:09:08.465Z,1012.68
2019-03-18T16:10:08.475Z,1012.72
2019-03-18T16:12:01.381Z,1012.69
2019-03-18T16:13:01.386Z,1012.74
2019-03-18T16:14:54.288Z,1012.79
2019-03-18T16:15:54.298Z,1012.78
2019-03-18T16:17:47.208Z,1012.82
2019-03-18T16:18:47.208Z,1012.76
2019-03-18T16:20:40.119Z,1012.79
2019-03-18T16:21:40.118Z,1012.89
2019-03-18T16:23:33.029Z,1012.85
2019-03-18T16:24:33.039Z,1012.84
2019-03-18T16:26:25.947Z,1012.98
2019-03-18T16:27:25.950Z,1012.88
2019-03-18T16:29:19.360Z,1012.86
2019-03-18T16:30:19.367Z,1012.93
2019-03-18T16:32:12.272Z,1012.94
2019-03-18T16:33:12.276Z,1013.06
2019-03-18T16:35:05.669Z,1013.01
2019-03-18T16:36:05.679Z,1013.06
2019-03-18T16:37:58.584Z,1013.10
2019-03-18T16:38:58.588Z,1013.13
2019-03-18T16:40:51.492Z,1013.14
2019-03-18T16:41:54.226Z,1013.15
2019-03-18T16:43:44.395Z,1013.18
2019-03-18T16:44:44.410Z,1013.24
2019-03-18T16:46:37.437Z,1013.26
2019-03-18T16:47:37.319Z,1013.25
2019-03-18T16:49:30.267Z,1013.29
2019-03-18T16:50:30.229Z,1013.26
2019-03-18T16:52:35.007Z,1013.42
2019-03-18T16:53:23.137Z,1013.36
2019-03-18T16:55:16.157Z,1013.40
2019-03-18T16:56:16.100Z,1013.42
2019-03-18T16:58:09.011Z,1013.47
2019-03-18T16:59:09.049Z,1013.50
2019-03-18T17:01:01.913Z,1013.50
2019-03-18T17:02:01.916Z,1013.51
2019-03-18T17:03:54.851Z,1013.56
2019-03-18T17:04:54.883Z,1013.58
2019-03-18T17:06:47.727Z,1013.56
2019-03-18T17:07:47.734Z,1013.56
2019-03-18T17:09:40.642Z,1013.58
2019-03-18T17:10:40.645Z,1013.58
2019-03-18T17:12:33.592Z,1013.65
2019-03-18T17:13:33.613Z,1013.64
2019-03-18T17:15:26.508Z,1013.65
2019-03-18T17:16:26.505Z,1013.61
2019-03-18T17:18:19.449Z,1013.59
2019-03-18T17:19:19.414Z,1013.62
2019-03-18T17:21:12.319Z,1013.65
2019-03-18T17:22:12.322Z,1013.64
2019-03-18T17:24:05.722Z,1013.64
2019-03-18T17:25:05.728Z,1013.69
2019-03-18T17:26:58.630Z,1013.71